CheckWX is a tool to help pilots better visualize weather data.  It is not intended as a substitute for an official pre-flight weather briefing.

03:19:41 UTC

KACP METAR
Allen Parish Airport
Oakdale, Louisiana, USA
Current

37 mins ago

KACP 230243Z AUTO 00000KT 10SM CLR 22/21 A3006 RMK AO2
Observed
Sep-23 @ 02:43 UTC
Visibility
10 SM
Flight Rules
VFR
Cloud Levels
  • Clear skies
Temperature
22°C / 72°F
Dewpoint
21°C / 70°F
Humidity
94%
Altimeter
30.06" Hg
Pressure
1017.92 hPa
Previous

57 mins ago

KACP 230223Z AUTO 00000KT 10SM CLR 23/21 A3005 RMK AO2
Observed
Sep-23 @ 02:23 UTC
Visibility
10 SM
Flight Rules
VFR
Cloud Levels
  • Clear skies
Temperature
23°C / 73°F
Dewpoint
21°C / 70°F
Humidity
89%
Altimeter
30.05" Hg
Pressure
1017.62 hPa
Previous

2 hours ago

KACP 230143Z AUTO 00000KT 10SM CLR 23/22 A3005 RMK AO2
Observed
Sep-23 @ 01:43 UTC
Visibility
10 SM
Flight Rules
VFR
Cloud Levels
  • Clear skies
Temperature
23°C / 73°F
Dewpoint
22°C / 72°F
Humidity
94%
Altimeter
30.05" Hg
Pressure
1017.62 hPa